createdAt,value
2022-12-12T00:01:46.209Z,13.10
2022-12-12T00:04:29.119Z,13.50
2022-12-12T00:09:54.761Z,12.70
2022-12-12T00:15:20.588Z,12.40
2022-12-12T00:20:54.575Z,12.40
2022-12-12T00:23:37.369Z,12.90
2022-12-12T00:29:05.550Z,13.00
2022-12-12T00:31:48.597Z,13.20
2022-12-12T00:37:14.116Z,12.30
2022-12-12T00:39:58.020Z,13.10
2022-12-12T00:42:40.784Z,14.20
2022-12-12T00:45:23.634Z,14.00
2022-12-12T00:50:50.096Z,13.60
2022-12-12T00:56:21.412Z,12.80
2022-12-12T00:59:04.560Z,13.60
2022-12-12T01:01:48.485Z,13.50
2022-12-12T01:04:31.817Z,12.60
2022-12-12T01:07:14.888Z,13.00
2022-12-12T01:09:57.908Z,13.80
2022-12-12T01:12:40.789Z,13.50
2022-12-12T01:18:06.844Z,12.60
2022-12-12T01:20:49.603Z,12.40
2022-12-12T01:23:32.553Z,11.50
2022-12-12T01:26:20.616Z,14.10
2022-12-12T01:29:03.722Z,15.10
2022-12-12T01:31:46.890Z,12.30
2022-12-12T01:34:29.900Z,13.40
2022-12-12T01:42:39.336Z,12.10
2022-12-12T01:46:01.267Z,11.20
2022-12-12T01:48:51.027Z,11.80
2022-12-12T01:51:34.521Z,12.80
2022-12-12T01:54:24.176Z,12.20
2022-12-12T01:57:13.635Z,11.80
2022-12-12T01:59:59.743Z,12.10
2022-12-12T02:02:46.307Z,12.20
2022-12-12T02:05:46.775Z,12.90
2022-12-12T02:08:30.511Z,11.90
2022-12-12T02:11:13.924Z,11.40
2022-12-12T02:13:59.185Z,12.60
2022-12-12T02:17:15.352Z,11.80
2022-12-12T02:20:33.065Z,12.60
2022-12-12T02:23:57.648Z,11.80
2022-12-12T02:26:55.175Z,10.50
2022-12-12T02:29:56.914Z,11.30
2022-12-12T02:32:59.741Z,10.40
2022-12-12T02:36:10.928Z,10.70
2022-12-12T02:39:03.348Z,10.90
2022-12-12T02:42:22.086Z,9.20
2022-12-12T02:45:43.377Z,11.20
2022-12-12T02:48:30.928Z,10.60
2022-12-12T02:51:15.855Z,10.80
2022-12-12T02:54:00.805Z,11.10
2022-12-12T02:56:56.448Z,11.00
2022-12-12T02:59:42.338Z,10.90
2022-12-12T03:02:42.034Z,10.20
2022-12-12T03:05:59.120Z,10.80
2022-12-12T03:08:51.434Z,10.60
2022-12-12T03:11:53.215Z,9.30
2022-12-12T03:15:02.001Z,9.50
2022-12-12T03:17:51.980Z,9.80
2022-12-12T03:20:48.117Z,10.60
2022-12-12T03:23:41.856Z,12.00
2022-12-12T03:26:42.332Z,10.70
2022-12-12T03:29:34.706Z,10.30
2022-12-12T03:32:23.594Z,11.60
2022-12-12T03:35:19.771Z,10.20
2022-12-12T03:38:16.844Z,10.50
2022-12-12T03:41:04.330Z,10.00
2022-12-12T03:43:56.644Z,9.90
2022-12-12T03:46:49.091Z,9.30
2022-12-12T03:49:42.446Z,9.80
2022-12-12T03:52:30.653Z,9.90
2022-12-12T03:55:25.569Z,9.10
2022-12-12T03:58:28.759Z,9.40
2022-12-12T04:01:14.293Z,10.30
2022-12-12T04:04:13.902Z,8.90
2022-12-12T04:07:27.074Z,9.00
2022-12-12T04:10:30.523Z,11.30
2022-12-12T04:13:37.262Z,11.00
2022-12-12T04:16:29.016Z,10.20
2022-12-12T04:19:42.992Z,8.80
2022-12-12T04:22:57.129Z,9.90
2022-12-12T04:26:24.956Z,10.30
2022-12-12T04:29:17.260Z,10.00
2022-12-12T04:32:15.452Z,8.80
2022-12-12T04:35:13.677Z,10.10
2022-12-12T04:38:00.834Z,11.70
2022-12-12T04:40:48.048Z,9.90
2022-12-12T04:43:37.505Z,10.20
2022-12-12T04:46:24.856Z,10.50
2022-12-12T04:49:15.930Z,10.20
2022-12-12T04:52:03.700Z,10.70
2022-12-12T04:54:54.691Z,10.70
2022-12-12T04:57:42.969Z,10.00
2022-12-12T05:00:32.179Z,10.60
2022-12-12T05:03:29.511Z,10.00
2022-12-12T05:06:15.911Z,10.20
2022-12-12T05:08:59.513Z,9.90
2022-12-12T05:11:44.699Z,9.70
2022-12-12T05:14:30.427Z,13.40
2022-12-12T05:17:20.540Z,12.00
2022-12-12T05:20:03.758Z,10.30
2022-12-12T05:22:46.759Z,11.20
2022-12-12T05:25:30.178Z,10.50
2022-12-12T05:28:13.212Z,10.00
2022-12-12T05:30:56.362Z,10.90
2022-12-12T05:33:39.766Z,26.30
2022-12-12T05:36:22.942Z,18.60
2022-12-12T05:39:06.032Z,12.00
2022-12-12T05:41:49.124Z,11.20
2022-12-12T05:44:32.665Z,9.10
2022-12-12T05:47:16.337Z,10.70
2022-12-12T05:49:59.418Z,16.80
2022-12-12T05:52:42.315Z,19.80
2022-12-12T05:58:09.162Z,14.50
2022-12-12T06:00:54.568Z,10.60
2022-12-12T06:03:40.393Z,9.50
2022-12-12T06:06:24.460Z,10.50
2022-12-12T06:11:50.082Z,9.80
2022-12-12T06:19:59.439Z,10.50
2022-12-12T06:22:55.480Z,10.40
2022-12-12T06:28:20.944Z,8.10
2022-12-12T06:33:52.712Z,9.30
2022-12-12T06:39:18.677Z,10.60
2022-12-12T06:42:01.574Z,10.40
2022-12-12T06:47:27.255Z,9.10
2022-12-12T06:50:10.437Z,8.80
2022-12-12T06:52:53.281Z,9.90
2022-12-12T06:55:43.277Z,8.20
2022-12-12T06:58:26.141Z,8.50
2022-12-12T07:03:54.017Z,8.40
2022-12-12T07:06:36.881Z,8.30
2022-12-12T07:12:03.880Z,8.30
2022-12-12T07:14:46.703Z,7.40
2022-12-12T07:20:12.730Z,8.30
2022-12-12T07:22:55.543Z,8.20
2022-12-12T07:28:24.849Z,13.90
2022-12-12T07:33:54.391Z,29.30
2022-12-12T07:36:38.393Z,13.90
2022-12-12T07:39:21.265Z,9.90
2022-12-12T07:42:05.239Z,9.00
2022-12-12T07:44:48.012Z,9.70
2022-12-12T07:47:31.086Z,8.10
2022-12-12T07:50:14.027Z,8.40
2022-12-12T07:52:56.947Z,14.80
2022-12-12T07:58:23.805Z,15.50
2022-12-12T08:01:22.074Z,10.90
2022-12-12T08:04:05.573Z,8.10
2022-12-12T08:06:50.022Z,7.20
2022-12-12T08:09:37.187Z,7.50
2022-12-12T08:12:20.036Z,7.80
2022-12-12T08:15:03.254Z,10.00
2022-12-12T08:17:46.017Z,7.00
2022-12-12T08:20:28.984Z,7.50
2022-12-12T08:23:12.923Z,8.50
2022-12-12T08:25:56.663Z,12.30
2022-12-12T08:31:25.339Z,8.30
2022-12-12T08:34:09.185Z,6.40
2022-12-12T08:36:52.596Z,7.10
2022-12-12T08:39:35.349Z,7.40
2022-12-12T08:42:18.169Z,7.30
2022-12-12T08:47:43.764Z,6.50
2022-12-12T08:50:28.756Z,6.50
2022-12-12T08:53:11.535Z,7.20
2022-12-12T09:01:23.911Z,6.50
2022-12-12T09:04:06.980Z,7.00
2022-12-12T09:06:50.887Z,8.50
2022-12-12T09:09:33.692Z,7.00
2022-12-12T09:14:59.112Z,6.20
2022-12-12T09:17:42.368Z,5.30
2022-12-12T09:20:25.379Z,6.20
2022-12-12T09:23:08.165Z,8.30
2022-12-12T09:25:52.236Z,7.60
2022-12-12T09:28:37.594Z,5.60
2022-12-12T09:31:20.578Z,7.30
2022-12-12T09:34:04.824Z,7.10
2022-12-12T09:39:30.950Z,7.00
2022-12-12T09:42:47.855Z,6.00
2022-12-12T09:45:38.032Z,6.70
2022-12-12T09:48:35.656Z,6.00
2022-12-12T09:51:18.730Z,5.60
2022-12-12T09:54:01.867Z,5.70
2022-12-12T09:57:11.397Z,6.50
2022-12-12T10:00:12.573Z,5.80
2022-12-12T10:03:14.411Z,6.00
2022-12-12T10:06:36.065Z,5.20
2022-12-12T10:09:35.528Z,4.90
2022-12-12T10:12:21.031Z,5.30
2022-12-12T10:15:07.911Z,5.30
2022-12-12T10:17:52.276Z,5.00
2022-12-12T10:20:45.535Z,5.10
2022-12-12T10:23:47.754Z,4.90
2022-12-12T10:26:31.513Z,4.90
2022-12-12T10:29:19.930Z,5.30
2022-12-12T10:32:28.864Z,5.00
2022-12-12T10:35:27.643Z,4.60
2022-12-12T10:38:23.448Z,5.20
2022-12-12T10:41:15.475Z,5.40
2022-12-12T10:44:07.897Z,5.40
2022-12-12T10:46:53.942Z,6.00
2022-12-12T10:49:37.769Z,5.60
2022-12-12T10:52:22.564Z,4.30
2022-12-12T10:55:30.535Z,4.60
2022-12-12T10:58:13.689Z,3.70
2022-12-12T11:01:04.711Z,4.70
2022-12-12T11:03:55.021Z,6.10
2022-12-12T11:06:47.527Z,5.30
2022-12-12T11:09:30.941Z,5.90
2022-12-12T11:12:16.657Z,5.60
2022-12-12T11:15:06.587Z,5.90
2022-12-12T11:17:49.995Z,6.60
2022-12-12T11:20:33.024Z,5.30
2022-12-12T11:23:19.726Z,5.60
2022-12-12T11:26:18.093Z,6.20
2022-12-12T11:29:02.979Z,5.90
2022-12-12T11:31:46.098Z,5.10
2022-12-12T11:34:29.411Z,5.20
2022-12-12T11:37:18.591Z,4.60
2022-12-12T11:40:02.081Z,3.90
2022-12-12T11:42:44.951Z,4.20
2022-12-12T11:45:27.790Z,4.50
2022-12-12T11:48:35.784Z,4.30
2022-12-12T11:51:33.955Z,4.30
2022-12-12T11:54:25.954Z,5.00
2022-12-12T11:57:25.578Z,4.40
2022-12-12T12:00:23.599Z,3.40
2022-12-12T12:03:37.489Z,3.80
2022-12-12T12:06:56.876Z,4.70
2022-12-12T12:09:54.895Z,3.70
2022-12-12T12:12:49.950Z,3.50
2022-12-12T12:15:38.735Z,3.50
2022-12-12T12:18:29.389Z,3.50
2022-12-12T12:21:21.288Z,3.10
2022-12-12T12:24:19.480Z,3.40
2022-12-12T12:27:32.370Z,3.10
2022-12-12T12:30:22.625Z,3.00
2022-12-12T12:33:17.775Z,3.40
2022-12-12T12:36:22.620Z,2.90
2022-12-12T12:39:30.589Z,3.40
2022-12-12T12:42:46.219Z,2.70
2022-12-12T12:45:49.581Z,3.40
2022-12-12T12:48:47.993Z,3.00
2022-12-12T12:51:50.055Z,2.80
2022-12-12T12:54:41.532Z,3.80
2022-12-12T12:57:26.472Z,3.90
2022-12-12T13:00:18.130Z,3.30
2022-12-12T13:03:17.713Z,4.40
2022-12-12T13:06:04.925Z,4.20
2022-12-12T13:09:01.941Z,3.30
2022-12-12T13:11:49.147Z,3.40
2022-12-12T13:14:38.102Z,4.20
2022-12-12T13:17:29.165Z,4.30
2022-12-12T13:20:21.660Z,4.40
2022-12-12T13:23:24.420Z,5.80
2022-12-12T13:26:21.344Z,9.30
2022-12-12T13:29:30.346Z,5.60
2022-12-12T13:32:50.398Z,6.50
2022-12-12T13:35:53.068Z,5.10
2022-12-12T13:38:37.388Z,6.70
2022-12-12T13:41:20.205Z,5.30
2022-12-12T13:46:45.917Z,4.70
2022-12-12T13:49:40.729Z,4.30
2022-12-12T13:52:25.376Z,6.10
2022-12-12T13:55:13.941Z,7.60
2022-12-12T13:58:05.563Z,7.60
2022-12-12T14:00:48.671Z,6.00
2022-12-12T14:03:32.306Z,6.40
2022-12-12T14:06:19.819Z,5.60
2022-12-12T14:09:03.761Z,5.60
2022-12-12T14:11:49.519Z,6.90
2022-12-12T14:14:34.192Z,8.60
2022-12-12T14:17:23.333Z,7.80
2022-12-12T14:20:07.084Z,7.30
2022-12-12T14:22:50.003Z,11.70
2022-12-12T14:25:38.331Z,17.90
2022-12-12T14:28:21.151Z,8.80
2022-12-12T14:38:00.014Z,6.40
2022-12-12T14:40:47.732Z,6.00
2022-12-12T14:43:36.102Z,6.40
2022-12-12T14:46:19.616Z,6.80
2022-12-12T14:49:06.285Z,6.20
2022-12-12T14:51:52.045Z,5.50
2022-12-12T14:54:37.285Z,7.30
2022-12-12T14:57:23.068Z,6.60
2022-12-12T15:00:17.966Z,6.10
2022-12-12T15:03:00.908Z,6.60
2022-12-12T15:05:45.649Z,5.70
2022-12-12T15:08:28.493Z,5.00
2022-12-12T15:11:16.262Z,7.30
2022-12-12T15:14:01.223Z,5.90
2022-12-12T15:16:48.594Z,6.10
2022-12-12T15:19:34.523Z,5.70
2022-12-12T15:22:27.741Z,6.50
2022-12-12T15:25:17.438Z,7.00
2022-12-12T15:28:01.531Z,6.30
2022-12-12T15:30:46.146Z,7.40
2022-12-12T15:33:29.070Z,6.80
2022-12-12T15:36:30.284Z,8.20
2022-12-12T15:39:16.680Z,9.00
2022-12-12T15:41:59.595Z,8.90
2022-12-12T15:44:44.503Z,7.60
2022-12-12T15:47:28.696Z,10.50
2022-12-12T15:50:24.720Z,9.80
2022-12-12T15:53:26.152Z,8.90
2022-12-12T15:56:15.948Z,10.50
2022-12-12T15:59:04.603Z,8.10
2022-12-12T16:01:48.634Z,8.50
2022-12-12T16:04:31.505Z,9.00
2022-12-12T16:10:24.885Z,8.40
2022-12-12T16:13:40.132Z,11.20
2022-12-12T16:16:37.167Z,9.70
2022-12-12T16:19:40.956Z,8.10
2022-12-12T16:22:46.279Z,8.70
2022-12-12T16:25:34.292Z,9.10
2022-12-12T16:28:25.587Z,9.20
2022-12-12T16:31:16.184Z,8.20
2022-12-12T16:34:03.574Z,10.30
2022-12-12T16:36:46.639Z,7.60
2022-12-12T16:39:29.451Z,10.10
2022-12-12T16:42:18.262Z,8.90
2022-12-12T16:45:00.996Z,9.10
2022-12-12T16:47:43.772Z,8.90
2022-12-12T16:50:26.553Z,8.70
2022-12-12T16:53:09.661Z,10.20
2022-12-12T16:55:52.675Z,8.50
2022-12-12T16:58:35.852Z,8.40
2022-12-12T17:04:04.124Z,8.70
2022-12-12T17:06:49.158Z,8.60
2022-12-12T17:09:31.840Z,9.00
2022-12-12T17:12:15.768Z,12.00
2022-12-12T17:14:58.597Z,10.00
2022-12-12T17:20:25.244Z,8.10
2022-12-12T17:23:29.915Z,9.00
2022-12-12T17:26:12.973Z,9.50
2022-12-12T17:28:55.743Z,11.00
2022-12-12T17:31:39.836Z,8.30
2022-12-12T17:34:22.978Z,8.80
2022-12-12T17:37:05.861Z,9.60
2022-12-12T17:42:32.969Z,9.10
2022-12-12T17:45:15.729Z,9.40
2022-12-12T17:47:58.522Z,8.80
2022-12-12T17:50:41.907Z,9.80
2022-12-12T17:53:25.038Z,10.20
2022-12-12T17:56:14.292Z,10.30
2022-12-12T17:58:57.340Z,11.00
2022-12-12T18:01:40.213Z,10.20
2022-12-12T18:07:11.100Z,10.40
2022-12-12T18:12:39.253Z,9.50
2022-12-12T18:15:22.018Z,10.00
2022-12-12T18:18:04.818Z,8.60
2022-12-12T18:20:47.600Z,9.30
2022-12-12T18:23:30.813Z,9.50
2022-12-12T18:26:21.797Z,10.10
2022-12-12T18:29:06.920Z,9.90
2022-12-12T18:31:50.295Z,9.70
2022-12-12T18:34:33.270Z,10.10
2022-12-12T18:39:59.830Z,9.90
2022-12-12T18:42:42.825Z,9.40
2022-12-12T18:45:25.616Z,9.90
2022-12-12T18:48:08.556Z,8.70
2022-12-12T18:53:34.767Z,10.00
2022-12-12T18:56:23.331Z,9.40
2022-12-12T18:59:07.643Z,9.90
2022-12-12T19:01:51.666Z,8.30
2022-12-12T19:04:34.637Z,10.10
2022-12-12T19:10:01.488Z,9.60
2022-12-12T19:12:45.534Z,10.50
2022-12-12T19:15:28.256Z,9.90
2022-12-12T19:18:11.253Z,9.40
2022-12-12T19:20:54.679Z,10.30
2022-12-12T19:23:39.479Z,10.40
2022-12-12T19:26:27.859Z,10.60
2022-12-12T19:29:14.873Z,9.20
2022-12-12T19:31:58.781Z,10.50
2022-12-12T19:34:42.472Z,8.80
2022-12-12T19:37:26.166Z,10.70
2022-12-12T19:40:11.257Z,9.40
2022-12-12T19:42:54.195Z,10.00
2022-12-12T19:45:37.141Z,9.20
2022-12-12T19:48:21.022Z,9.80
2022-12-12T19:51:10.658Z,9.70
2022-12-12T19:53:59.516Z,10.00
2022-12-12T19:56:44.671Z,10.00
2022-12-12T19:59:27.952Z,9.00
2022-12-12T20:02:11.808Z,10.20
2022-12-12T20:04:54.676Z,9.20
2022-12-12T20:07:37.448Z,10.00
2022-12-12T20:10:20.241Z,9.70
2022-12-12T20:15:46.785Z,10.70
2022-12-12T20:18:30.784Z,10.40
2022-12-12T20:21:36.278Z,10.40
2022-12-12T20:27:04.402Z,12.00
2022-12-12T20:29:48.636Z,10.80
2022-12-12T20:32:33.807Z,11.50
2022-12-12T20:35:16.790Z,9.30
2022-12-12T20:37:59.582Z,10.70
2022-12-12T20:43:28.038Z,9.40
2022-12-12T20:46:11.186Z,9.10
2022-12-12T20:48:54.252Z,10.90
2022-12-12T20:54:43.378Z,8.30
2022-12-12T20:57:26.331Z,9.70
2022-12-12T21:00:11.346Z,8.90
2022-12-12T21:02:54.440Z,9.30
2022-12-12T21:05:41.220Z,8.70
2022-12-12T21:08:24.034Z,8.30
2022-12-12T21:11:07.967Z,8.60
2022-12-12T21:13:51.168Z,9.10
2022-12-12T21:16:37.767Z,8.00
2022-12-12T21:19:21.162Z,8.60
2022-12-12T21:22:03.962Z,8.70
2022-12-12T21:27:31.060Z,9.10
2022-12-12T21:30:14.405Z,10.30
2022-12-12T21:32:57.219Z,8.70
2022-12-12T21:38:22.828Z,8.10
2022-12-12T21:41:13.763Z,8.50
2022-12-12T21:44:01.158Z,8.40
2022-12-12T21:46:44.395Z,8.10
2022-12-12T21:49:27.897Z,8.00
2022-12-12T21:52:13.991Z,7.90
2022-12-12T21:54:56.721Z,7.60
2022-12-12T21:57:39.823Z,7.80
2022-12-12T22:00:26.004Z,7.10
2022-12-12T22:03:09.251Z,7.30
2022-12-12T22:05:52.146Z,7.60
2022-12-12T22:11:39.843Z,7.50
2022-12-12T22:14:24.683Z,7.00
2022-12-12T22:17:07.649Z,7.40
2022-12-12T22:22:34.325Z,7.60
2022-12-12T22:25:17.283Z,7.90
2022-12-12T22:28:00.126Z,6.60
2022-12-12T22:30:45.359Z,5.70
2022-12-12T22:33:28.056Z,6.20
2022-12-12T22:41:38.043Z,7.80
2022-12-12T22:47:04.891Z,8.60
2022-12-12T22:49:48.762Z,7.30
2022-12-12T22:52:31.586Z,6.90
2022-12-12T22:55:14.670Z,7.40
2022-12-12T22:57:58.324Z,6.50
2022-12-12T23:00:41.138Z,7.20
2022-12-12T23:03:25.164Z,6.40
2022-12-12T23:06:19.785Z,6.30
2022-12-12T23:09:15.086Z,6.20
2022-12-12T23:11:57.906Z,5.70
2022-12-12T23:14:41.145Z,5.20
2022-12-12T23:20:09.328Z,5.40
2022-12-12T23:22:52.184Z,5.40
2022-12-12T23:28:19.594Z,6.80
2022-12-12T23:31:06.667Z,5.80
2022-12-12T23:33:55.735Z,5.50
2022-12-12T23:36:38.630Z,4.90
2022-12-12T23:42:06.197Z,5.10
2022-12-12T23:44:50.826Z,6.10
2022-12-12T23:47:37.017Z,5.80
2022-12-12T23:50:22.009Z,5.80
2022-12-12T23:53:10.368Z,6.40
2022-12-12T23:55:54.294Z,7.50
2022-12-12T23:58:37.031Z,7.10
